sensor_id;sensor_type;location;lat;lon;timestamp;P1;durP1;ratioP1;P2;durP2;ratioP2
44272;SDS011;29964;17.182;-96.766;2023-06-10T00:02:00;2.90;;;1.92;;
44272;SDS011;29964;17.182;-96.766;2023-06-10T00:04:28;5.60;;;2.08;;
44272;SDS011;29964;17.182;-96.766;2023-06-10T00:06:55;5.70;;;2.20;;
44272;SDS011;29964;17.182;-96.766;2023-06-10T00:09:22;3.90;;;1.90;;
44272;SDS011;29964;17.182;-96.766;2023-06-10T00:11:49;4.38;;;2.58;;
44272;SDS011;29964;17.182;-96.766;2023-06-10T00:14:16;2.70;;;2.15;;
44272;SDS011;29964;17.182;-96.766;2023-06-10T00:16:43;4.00;;;2.42;;
44272;SDS011;29964;17.182;-96.766;2023-06-10T00:19:10;3.08;;;2.17;;
44272;SDS011;29964;17.182;-96.766;2023-06-10T00:21:39;2.65;;;2.00;;
44272;SDS011;29964;17.182;-96.766;2023-06-10T00:24:06;4.78;;;2.30;;
44272;SDS011;29964;17.182;-96.766;2023-06-10T00:26:37;2.90;;;2.00;;
44272;SDS011;29964;17.182;-96.766;2023-06-10T00:29:04;8.73;;;3.00;;
44272;SDS011;29964;17.182;-96.766;2023-06-10T00:31:31;6.68;;;2.72;;
44272;SDS011;29964;17.182;-96.766;2023-06-10T00:33:58;4.60;;;2.05;;
44272;SDS011;29964;17.182;-96.766;2023-06-10T00:36:25;4.43;;;2.13;;
44272;SDS011;29964;17.182;-96.766;2023-06-10T00:38:52;12.98;;;2.83;;
44272;SDS011;29964;17.182;-96.766;2023-06-10T00:41:19;8.77;;;2.58;;
44272;SDS011;29964;17.182;-96.766;2023-06-10T00:43:45;4.97;;;2.60;;
44272;SDS011;29964;17.182;-96.766;2023-06-10T00:46:12;3.63;;;2.53;;
44272;SDS011;29964;17.182;-96.766;2023-06-10T00:48:40;3.78;;;2.45;;
44272;SDS011;29964;17.182;-96.766;2023-06-10T00:51:07;5.07;;;2.90;;
44272;SDS011;29964;17.182;-96.766;2023-06-10T00:53:38;3.70;;;3.10;;
44272;SDS011;29964;17.182;-96.766;2023-06-10T00:56:06;5.63;;;3.45;;
44272;SDS011;29964;17.182;-96.766;2023-06-10T00:58:32;3.28;;;2.47;;
44272;SDS011;29964;17.182;-96.766;2023-06-10T01:00:59;5.88;;;3.47;;
44272;SDS011;29964;17.182;-96.766;2023-06-10T01:03:27;6.18;;;3.88;;
44272;SDS011;29964;17.182;-96.766;2023-06-10T01:05:57;5.43;;;3.40;;
44272;SDS011;29964;17.182;-96.766;2023-06-10T01:11:20;4.82;;;3.17;;
44272;SDS011;29964;17.182;-96.766;2023-06-10T01:13:48;6.13;;;3.92;;
44272;SDS011;29964;17.182;-96.766;2023-06-10T01:16:18;7.88;;;3.67;;
44272;SDS011;29964;17.182;-96.766;2023-06-10T01:18:46;7.30;;;4.15;;
44272;SDS011;29964;17.182;-96.766;2023-06-10T01:21:30;4.22;;;3.15;;
44272;SDS011;29964;17.182;-96.766;2023-06-10T01:26:28;5.75;;;3.33;;
44272;SDS011;29964;17.182;-96.766;2023-06-10T01:29:14;10.20;;;4.43;;
44272;SDS011;29964;17.182;-96.766;2023-06-10T01:31:51;6.15;;;3.60;;
44272;SDS011;29964;17.182;-96.766;2023-06-10T01:34:21;19.70;;;3.22;;
44272;SDS011;29964;17.182;-96.766;2023-06-10T01:36:50;6.47;;;4.15;;
44272;SDS011;29964;17.182;-96.766;2023-06-10T01:39:17;4.22;;;3.55;;
44272;SDS011;29964;17.182;-96.766;2023-06-10T01:41:44;7.35;;;3.97;;
44272;SDS011;29964;17.182;-96.766;2023-06-10T01:44:11;8.60;;;3.97;;
44272;SDS011;29964;17.182;-96.766;2023-06-10T01:46:38;7.03;;;4.55;;
44272;SDS011;29964;17.182;-96.766;2023-06-10T01:49:05;4.78;;;3.63;;
44272;SDS011;29964;17.182;-96.766;2023-06-10T01:51:32;10.60;;;3.67;;
44272;SDS011;29964;17.182;-96.766;2023-06-10T01:53:59;5.72;;;3.47;;
44272;SDS011;29964;17.182;-96.766;2023-06-10T01:56:25;5.22;;;3.28;;
44272;SDS011;29964;17.182;-96.766;2023-06-10T01:58:52;5.28;;;3.35;;
44272;SDS011;29964;17.182;-96.766;2023-06-10T02:01:24;4.07;;;3.22;;
44272;SDS011;29964;17.182;-96.766;2023-06-10T02:03:51;5.03;;;3.70;;
44272;SDS011;29964;17.182;-96.766;2023-06-10T02:06:18;7.65;;;3.00;;
44272;SDS011;29964;17.182;-96.766;2023-06-10T02:08:45;11.52;;;3.15;;
44272;SDS011;29964;17.182;-96.766;2023-06-10T02:11:12;8.88;;;3.97;;
44272;SDS011;29964;17.182;-96.766;2023-06-10T02:13:39;4.55;;;2.88;;
44272;SDS011;29964;17.182;-96.766;2023-06-10T02:16:06;4.05;;;3.05;;
44272;SDS011;29964;17.182;-96.766;2023-06-10T02:18:32;24.83;;;3.93;;
44272;SDS011;29964;17.182;-96.766;2023-06-10T02:20:59;5.33;;;3.43;;
44272;SDS011;29964;17.182;-96.766;2023-06-10T02:23:26;5.77;;;3.87;;
44272;SDS011;29964;17.182;-96.766;2023-06-10T02:25:53;10.27;;;3.73;;
44272;SDS011;29964;17.182;-96.766;2023-06-10T02:28:20;12.10;;;3.77;;
44272;SDS011;29964;17.182;-96.766;2023-06-10T02:30:46;5.03;;;3.63;;
44272;SDS011;29964;17.182;-96.766;2023-06-10T02:33:13;8.10;;;3.27;;
44272;SDS011;29964;17.182;-96.766;2023-06-10T02:35:40;13.13;;;3.50;;
44272;SDS011;29964;17.182;-96.766;2023-06-10T02:38:07;2.83;;;2.27;;
44272;SDS011;29964;17.182;-96.766;2023-06-10T02:40:34;7.23;;;3.27;;
44272;SDS011;29964;17.182;-96.766;2023-06-10T02:43:01;16.97;;;3.60;;
44272;SDS011;29964;17.182;-96.766;2023-06-10T02:45:27;10.40;;;3.00;;
44272;SDS011;29964;17.182;-96.766;2023-06-10T02:47:54;7.37;;;3.80;;
44272;SDS011;29964;17.182;-96.766;2023-06-10T02:50:21;4.40;;;3.00;;
44272;SDS011;29964;17.182;-96.766;2023-06-10T02:52:48;7.53;;;3.50;;
44272;SDS011;29964;17.182;-96.766;2023-06-10T02:55:15;6.70;;;3.83;;
44272;SDS011;29964;17.182;-96.766;2023-06-10T02:57:42;4.03;;;2.63;;
44272;SDS011;29964;17.182;-96.766;2023-06-10T03:00:09;3.90;;;2.90;;
44272;SDS011;29964;17.182;-96.766;2023-06-10T03:02:38;7.10;;;3.53;;
44272;SDS011;29964;17.182;-96.766;2023-06-10T03:05:06;7.40;;;3.53;;
44272;SDS011;29964;17.182;-96.766;2023-06-10T03:07:36;8.80;;;3.03;;
44272;SDS011;29964;17.182;-96.766;2023-06-10T03:10:03;9.07;;;3.47;;
44272;SDS011;29964;17.182;-96.766;2023-06-10T03:12:30;3.20;;;2.33;;
44272;SDS011;29964;17.182;-96.766;2023-06-10T03:14:57;5.23;;;2.63;;
44272;SDS011;29964;17.182;-96.766;2023-06-10T03:17:23;4.93;;;3.03;;
44272;SDS011;29964;17.182;-96.766;2023-06-10T03:19:50;13.70;;;3.03;;
44272;SDS011;29964;17.182;-96.766;2023-06-10T03:22:17;8.33;;;2.63;;
44272;SDS011;29964;17.182;-96.766;2023-06-10T03:24:44;4.80;;;2.97;;
44272;SDS011;29964;17.182;-96.766;2023-06-10T03:27:11;7.33;;;3.43;;
44272;SDS011;29964;17.182;-96.766;2023-06-10T03:29:38;5.77;;;3.13;;
44272;SDS011;29964;17.182;-96.766;2023-06-10T03:32:06;4.50;;;2.57;;
44272;SDS011;29964;17.182;-96.766;2023-06-10T03:34:33;6.77;;;2.90;;
44272;SDS011;29964;17.182;-96.766;2023-06-10T03:37:00;8.47;;;2.93;;
44272;SDS011;29964;17.182;-96.766;2023-06-10T03:39:27;7.03;;;3.10;;
44272;SDS011;29964;17.182;-96.766;2023-06-10T03:41:55;5.87;;;2.80;;
44272;SDS011;29964;17.182;-96.766;2023-06-10T03:44:24;3.00;;;2.30;;
44272;SDS011;29964;17.182;-96.766;2023-06-10T03:46:54;17.30;;;3.73;;
44272;SDS011;29964;17.182;-96.766;2023-06-10T03:49:21;8.03;;;3.07;;
44272;SDS011;29964;17.182;-96.766;2023-06-10T03:51:52;8.30;;;3.47;;
44272;SDS011;29964;17.182;-96.766;2023-06-10T03:54:19;8.20;;;2.97;;
44272;SDS011;29964;17.182;-96.766;2023-06-10T03:56:46;4.57;;;2.43;;
44272;SDS011;29964;17.182;-96.766;2023-06-10T03:59:13;3.93;;;2.77;;
44272;SDS011;29964;17.182;-96.766;2023-06-10T04:01:40;3.70;;;2.70;;
44272;SDS011;29964;17.182;-96.766;2023-06-10T04:04:07;5.53;;;3.13;;
44272;SDS011;29964;17.182;-96.766;2023-06-10T04:06:33;4.80;;;3.23;;
44272;SDS011;29964;17.182;-96.766;2023-06-10T04:09:00;4.80;;;2.40;;
44272;SDS011;29964;17.182;-96.766;2023-06-10T04:11:28;8.63;;;3.70;;
44272;SDS011;29964;17.182;-96.766;2023-06-10T04:13:55;4.97;;;3.13;;
44272;SDS011;29964;17.182;-96.766;2023-06-10T04:16:22;3.60;;;2.07;;
44272;SDS011;29964;17.182;-96.766;2023-06-10T04:18:48;4.43;;;2.97;;
44272;SDS011;29964;17.182;-96.766;2023-06-10T04:21:15;3.57;;;2.77;;
44272;SDS011;29964;17.182;-96.766;2023-06-10T04:23:42;7.17;;;2.53;;
44272;SDS011;29964;17.182;-96.766;2023-06-10T04:26:09;8.47;;;2.93;;
44272;SDS011;29964;17.182;-96.766;2023-06-10T04:28:37;4.63;;;2.90;;
44272;SDS011;29964;17.182;-96.766;2023-06-10T04:31:04;4.37;;;2.67;;
44272;SDS011;29964;17.182;-96.766;2023-06-10T04:33:31;6.53;;;4.13;;
44272;SDS011;29964;17.182;-96.766;2023-06-10T04:35:58;6.07;;;3.40;;
44272;SDS011;29964;17.182;-96.766;2023-06-10T04:38:25;5.37;;;3.13;;
44272;SDS011;29964;17.182;-96.766;2023-06-10T04:40:51;12.80;;;4.87;;
44272;SDS011;29964;17.182;-96.766;2023-06-10T04:43:18;7.73;;;3.73;;
44272;SDS011;29964;17.182;-96.766;2023-06-10T04:45:46;5.57;;;3.60;;
44272;SDS011;29964;17.182;-96.766;2023-06-10T04:48:12;5.97;;;4.53;;
44272;SDS011;29964;17.182;-96.766;2023-06-10T04:50:39;7.73;;;4.47;;
44272;SDS011;29964;17.182;-96.766;2023-06-10T04:53:06;4.97;;;3.73;;
44272;SDS011;29964;17.182;-96.766;2023-06-10T04:55:33;6.47;;;3.13;;
44272;SDS011;29964;17.182;-96.766;2023-06-10T04:58:01;8.30;;;4.27;;
44272;SDS011;29964;17.182;-96.766;2023-06-10T05:00:28;12.87;;;4.50;;
44272;SDS011;29964;17.182;-96.766;2023-06-10T05:02:55;6.93;;;4.20;;
44272;SDS011;29964;17.182;-96.766;2023-06-10T05:05:22;16.67;;;3.97;;
44272;SDS011;29964;17.182;-96.766;2023-06-10T05:07:48;5.00;;;4.07;;
44272;SDS011;29964;17.182;-96.766;2023-06-10T05:10:15;5.57;;;4.20;;
44272;SDS011;29964;17.182;-96.766;2023-06-10T05:12:42;8.47;;;4.93;;
44272;SDS011;29964;17.182;-96.766;2023-06-10T05:15:09;6.90;;;4.50;;
44272;SDS011;29964;17.182;-96.766;2023-06-10T05:17:36;19.47;;;6.80;;
44272;SDS011;29964;17.182;-96.766;2023-06-10T05:20:03;6.60;;;5.10;;
44272;SDS011;29964;17.182;-96.766;2023-06-10T05:22:30;10.00;;;4.27;;
44272;SDS011;29964;17.182;-96.766;2023-06-10T05:24:56;8.07;;;5.10;;
44272;SDS011;29964;17.182;-96.766;2023-06-10T05:27:23;13.23;;;4.50;;
44272;SDS011;29964;17.182;-96.766;2023-06-10T05:29:50;8.00;;;4.30;;
44272;SDS011;29964;17.182;-96.766;2023-06-10T05:32:17;6.33;;;4.57;;
44272;SDS011;29964;17.182;-96.766;2023-06-10T05:34:44;8.07;;;5.17;;
44272;SDS011;29964;17.182;-96.766;2023-06-10T05:37:12;8.07;;;5.70;;
44272;SDS011;29964;17.182;-96.766;2023-06-10T05:39:39;5.80;;;4.50;;
44272;SDS011;29964;17.182;-96.766;2023-06-10T05:42:06;8.43;;;5.07;;
44272;SDS011;29964;17.182;-96.766;2023-06-10T05:44:33;6.90;;;5.03;;
44272;SDS011;29964;17.182;-96.766;2023-06-10T05:47:00;6.97;;;4.87;;
44272;SDS011;29964;17.182;-96.766;2023-06-10T05:49:27;6.63;;;5.37;;
44272;SDS011;29964;17.182;-96.766;2023-06-10T05:51:54;5.70;;;4.10;;
44272;SDS011;29964;17.182;-96.766;2023-06-10T05:54:22;5.80;;;4.27;;
44272;SDS011;29964;17.182;-96.766;2023-06-10T05:56:49;6.57;;;4.27;;
44272;SDS011;29964;17.182;-96.766;2023-06-10T05:59:16;6.17;;;5.23;;
44272;SDS011;29964;17.182;-96.766;2023-06-10T06:01:43;14.10;;;5.93;;
44272;SDS011;29964;17.182;-96.766;2023-06-10T06:04:09;6.57;;;3.90;;
44272;SDS011;29964;17.182;-96.766;2023-06-10T06:06:38;9.87;;;5.43;;
44272;SDS011;29964;17.182;-96.766;2023-06-10T06:09:06;10.87;;;5.63;;
44272;SDS011;29964;17.182;-96.766;2023-06-10T06:11:33;8.97;;;5.50;;
44272;SDS011;29964;17.182;-96.766;2023-06-10T06:14:00;7.23;;;6.00;;
44272;SDS011;29964;17.182;-96.766;2023-06-10T06:16:27;8.53;;;5.30;;
44272;SDS011;29964;17.182;-96.766;2023-06-10T06:18:53;9.70;;;5.90;;
44272;SDS011;29964;17.182;-96.766;2023-06-10T06:21:20;8.60;;;6.43;;
44272;SDS011;29964;17.182;-96.766;2023-06-10T06:23:47;10.57;;;6.33;;
44272;SDS011;29964;17.182;-96.766;2023-06-10T06:26:14;9.23;;;6.33;;
44272;SDS011;29964;17.182;-96.766;2023-06-10T06:28:40;11.83;;;7.20;;
44272;SDS011;29964;17.182;-96.766;2023-06-10T06:31:07;7.23;;;5.83;;
44272;SDS011;29964;17.182;-96.766;2023-06-10T06:33:34;15.30;;;6.70;;
44272;SDS011;29964;17.182;-96.766;2023-06-10T06:36:01;7.60;;;5.20;;
44272;SDS011;29964;17.182;-96.766;2023-06-10T06:38:27;10.50;;;6.73;;
44272;SDS011;29964;17.182;-96.766;2023-06-10T06:40:54;6.80;;;6.10;;
44272;SDS011;29964;17.182;-96.766;2023-06-10T06:43:21;8.27;;;6.57;;
44272;SDS011;29964;17.182;-96.766;2023-06-10T06:45:48;9.70;;;7.10;;
44272;SDS011;29964;17.182;-96.766;2023-06-10T06:48:14;7.03;;;5.50;;
44272;SDS011;29964;17.182;-96.766;2023-06-10T06:50:41;8.80;;;6.93;;
44272;SDS011;29964;17.182;-96.766;2023-06-10T06:53:08;9.83;;;6.70;;
44272;SDS011;29964;17.182;-96.766;2023-06-10T06:55:35;10.70;;;8.17;;
44272;SDS011;29964;17.182;-96.766;2023-06-10T06:58:01;8.00;;;6.07;;
44272;SDS011;29964;17.182;-96.766;2023-06-10T07:00:29;9.33;;;6.97;;
44272;SDS011;29964;17.182;-96.766;2023-06-10T07:02:56;7.70;;;6.67;;
44272;SDS011;29964;17.182;-96.766;2023-06-10T07:05:23;10.47;;;7.17;;
44272;SDS011;29964;17.182;-96.766;2023-06-10T07:07:53;9.03;;;6.47;;
44272;SDS011;29964;17.182;-96.766;2023-06-10T07:10:21;10.77;;;7.17;;
44272;SDS011;29964;17.182;-96.766;2023-06-10T07:12:48;11.60;;;7.83;;
44272;SDS011;29964;17.182;-96.766;2023-06-10T07:15:15;9.17;;;5.93;;
44272;SDS011;29964;17.182;-96.766;2023-06-10T07:17:42;21.47;;;6.70;;
44272;SDS011;29964;17.182;-96.766;2023-06-10T07:20:09;13.17;;;7.60;;
44272;SDS011;29964;17.182;-96.766;2023-06-10T07:22:36;11.80;;;7.53;;
44272;SDS011;29964;17.182;-96.766;2023-06-10T07:25:06;14.77;;;7.80;;
44272;SDS011;29964;17.182;-96.766;2023-06-10T07:27:33;13.80;;;9.00;;
44272;SDS011;29964;17.182;-96.766;2023-06-10T07:30:01;14.77;;;6.60;;
44272;SDS011;29964;17.182;-96.766;2023-06-10T07:32:28;10.20;;;7.27;;
44272;SDS011;29964;17.182;-96.766;2023-06-10T07:34:55;15.53;;;6.90;;
44272;SDS011;29964;17.182;-96.766;2023-06-10T07:37:22;8.47;;;6.70;;
44272;SDS011;29964;17.182;-96.766;2023-06-10T07:39:50;8.57;;;6.57;;
44272;SDS011;29964;17.182;-96.766;2023-06-10T07:42:17;9.97;;;6.13;;
44272;SDS011;29964;17.182;-96.766;2023-06-10T07:44:44;7.33;;;5.83;;
44272;SDS011;29964;17.182;-96.766;2023-06-10T07:47:10;7.77;;;6.40;;
44272;SDS011;29964;17.182;-96.766;2023-06-10T07:49:37;8.30;;;5.93;;
44272;SDS011;29964;17.182;-96.766;2023-06-10T07:52:05;8.97;;;7.10;;
44272;SDS011;29964;17.182;-96.766;2023-06-10T07:54:32;10.00;;;7.53;;
44272;SDS011;29964;17.182;-96.766;2023-06-10T07:56:58;8.93;;;6.70;;
44272;SDS011;29964;17.182;-96.766;2023-06-10T07:59:25;11.93;;;8.73;;
44272;SDS011;29964;17.182;-96.766;2023-06-10T08:01:52;8.30;;;6.33;;
44272;SDS011;29964;17.182;-96.766;2023-06-10T08:04:19;7.63;;;5.67;;
44272;SDS011;29964;17.182;-96.766;2023-06-10T08:06:46;9.53;;;7.00;;
44272;SDS011;29964;17.182;-96.766;2023-06-10T08:09:13;14.10;;;7.67;;
44272;SDS011;29964;17.182;-96.766;2023-06-10T08:11:39;8.50;;;6.07;;
44272;SDS011;29964;17.182;-96.766;2023-06-10T08:14:06;11.83;;;5.97;;
44272;SDS011;29964;17.182;-96.766;2023-06-10T08:16:33;10.07;;;7.80;;
44272;SDS011;29964;17.182;-96.766;2023-06-10T08:19:00;9.10;;;7.20;;
44272;SDS011;29964;17.182;-96.766;2023-06-10T08:21:26;8.27;;;6.43;;
44272;SDS011;29964;17.182;-96.766;2023-06-10T08:23:53;8.50;;;7.00;;
44272;SDS011;29964;17.182;-96.766;2023-06-10T08:26:20;11.47;;;8.67;;
44272;SDS011;29964;17.182;-96.766;2023-06-10T08:28:47;11.70;;;7.60;;
44272;SDS011;29964;17.182;-96.766;2023-06-10T08:31:14;12.50;;;7.90;;
44272;SDS011;29964;17.182;-96.766;2023-06-10T08:33:41;23.70;;;7.40;;
44272;SDS011;29964;17.182;-96.766;2023-06-10T08:36:08;12.70;;;7.37;;
44272;SDS011;29964;17.182;-96.766;2023-06-10T08:38:35;10.77;;;7.33;;
44272;SDS011;29964;17.182;-96.766;2023-06-10T08:41:02;12.43;;;8.47;;
44272;SDS011;29964;17.182;-96.766;2023-06-10T08:43:37;7.60;;;5.27;;
44272;SDS011;29964;17.182;-96.766;2023-06-10T08:46:05;14.48;;;7.22;;
44272;SDS011;29964;17.182;-96.766;2023-06-10T08:48:34;9.80;;;7.20;;
44272;SDS011;29964;17.182;-96.766;2023-06-10T08:51:01;10.10;;;7.13;;
44272;SDS011;29964;17.182;-96.766;2023-06-10T08:53:31;10.87;;;8.27;;
44272;SDS011;29964;17.182;-96.766;2023-06-10T08:56:00;11.30;;;7.67;;
44272;SDS011;29964;17.182;-96.766;2023-06-10T08:58:29;8.90;;;6.77;;
44272;SDS011;29964;17.182;-96.766;2023-06-10T09:00:56;13.93;;;8.47;;
44272;SDS011;29964;17.182;-96.766;2023-06-10T09:03:25;12.07;;;7.40;;
44272;SDS011;29964;17.182;-96.766;2023-06-10T09:05:52;12.57;;;8.00;;
44272;SDS011;29964;17.182;-96.766;2023-06-10T09:08:20;8.53;;;6.80;;
44272;SDS011;29964;17.182;-96.766;2023-06-10T09:10:47;11.33;;;7.00;;
44272;SDS011;29964;17.182;-96.766;2023-06-10T09:13:14;8.77;;;7.13;;
44272;SDS011;29964;17.182;-96.766;2023-06-10T09:15:44;11.07;;;7.20;;
44272;SDS011;29964;17.182;-96.766;2023-06-10T09:18:11;11.17;;;8.27;;
44272;SDS011;29964;17.182;-96.766;2023-06-10T09:20:38;10.03;;;7.40;;
44272;SDS011;29964;17.182;-96.766;2023-06-10T09:23:05;9.17;;;7.67;;
44272;SDS011;29964;17.182;-96.766;2023-06-10T09:25:36;8.33;;;6.77;;
44272;SDS011;29964;17.182;-96.766;2023-06-10T09:28:03;10.40;;;8.37;;
44272;SDS011;29964;17.182;-96.766;2023-06-10T09:30:34;10.93;;;8.17;;
44272;SDS011;29964;17.182;-96.766;2023-06-10T09:33:01;9.87;;;7.20;;
44272;SDS011;29964;17.182;-96.766;2023-06-10T09:35:29;24.07;;;7.60;;
44272;SDS011;29964;17.182;-96.766;2023-06-10T09:37:57;10.13;;;7.30;;
44272;SDS011;29964;17.182;-96.766;2023-06-10T09:40:24;13.23;;;7.20;;
44272;SDS011;29964;17.182;-96.766;2023-06-10T09:42:55;9.77;;;7.57;;
44272;SDS011;29964;17.182;-96.766;2023-06-10T09:45:23;13.97;;;7.30;;
44272;SDS011;29964;17.182;-96.766;2023-06-10T09:47:53;14.90;;;8.47;;
44272;SDS011;29964;17.182;-96.766;2023-06-10T09:50:21;22.43;;;8.27;;
44272;SDS011;29964;17.182;-96.766;2023-06-10T09:52:47;11.30;;;8.87;;
44272;SDS011;29964;17.182;-96.766;2023-06-10T09:55:14;9.50;;;8.03;;
44272;SDS011;29964;17.182;-96.766;2023-06-10T09:57:41;11.20;;;7.90;;
44272;SDS011;29964;17.182;-96.766;2023-06-10T10:00:11;6.80;;;5.70;;
44272;SDS011;29964;17.182;-96.766;2023-06-10T10:02:45;10.23;;;7.57;;
44272;SDS011;29964;17.182;-96.766;2023-06-10T10:05:13;11.82;;;8.18;;
44272;SDS011;29964;17.182;-96.766;2023-06-10T10:07:41;11.10;;;8.17;;
44272;SDS011;29964;17.182;-96.766;2023-06-10T10:10:08;8.80;;;7.43;;
44272;SDS011;29964;17.182;-96.766;2023-06-10T10:12:35;23.47;;;10.27;;
44272;SDS011;29964;17.182;-96.766;2023-06-10T10:15:02;8.90;;;7.30;;
44272;SDS011;29964;17.182;-96.766;2023-06-10T10:17:30;19.93;;;8.23;;
44272;SDS011;29964;17.182;-96.766;2023-06-10T10:20:02;8.43;;;6.53;;
44272;SDS011;29964;17.182;-96.766;2023-06-10T10:22:29;11.63;;;7.97;;
44272;SDS011;29964;17.182;-96.766;2023-06-10T10:24:59;14.07;;;9.43;;
44272;SDS011;29964;17.182;-96.766;2023-06-10T10:27:29;9.50;;;8.07;;
44272;SDS011;29964;17.182;-96.766;2023-06-10T10:29:58;11.60;;;8.50;;
44272;SDS011;29964;17.182;-96.766;2023-06-10T10:32:27;9.87;;;7.40;;
44272;SDS011;29964;17.182;-96.766;2023-06-10T10:35:03;10.27;;;8.47;;
44272;SDS011;29964;17.182;-96.766;2023-06-10T10:37:34;15.70;;;7.57;;
44272;SDS011;29964;17.182;-96.766;2023-06-10T10:40:02;10.20;;;7.60;;
44272;SDS011;29964;17.182;-96.766;2023-06-10T10:42:29;12.70;;;8.33;;
44272;SDS011;29964;17.182;-96.766;2023-06-10T10:44:56;13.70;;;8.90;;
44272;SDS011;29964;17.182;-96.766;2023-06-10T10:47:23;8.63;;;7.37;;
44272;SDS011;29964;17.182;-96.766;2023-06-10T10:49:56;11.63;;;8.90;;
44272;SDS011;29964;17.182;-96.766;2023-06-10T10:52:24;10.90;;;8.27;;
44272;SDS011;29964;17.182;-96.766;2023-06-10T10:54:52;11.00;;;8.27;;
44272;SDS011;29964;17.182;-96.766;2023-06-10T10:57:21;10.47;;;7.57;;
44272;SDS011;29964;17.182;-96.766;2023-06-10T11:02:18;6.60;;;5.80;;
44272;SDS011;29964;17.182;-96.766;2023-06-10T11:04:48;14.83;;;8.20;;
44272;SDS011;29964;17.182;-96.766;2023-06-10T11:07:15;13.67;;;7.83;;
44272;SDS011;29964;17.182;-96.766;2023-06-10T11:09:59;8.77;;;6.37;;
44272;SDS011;29964;17.182;-96.766;2023-06-10T11:13:00;10.90;;;8.03;;
44272;SDS011;29964;17.182;-96.766;2023-06-10T11:15:24;18.03;;;8.57;;
44272;SDS011;29964;17.182;-96.766;2023-06-10T11:18:07;13.73;;;8.93;;
44272;SDS011;29964;17.182;-96.766;2023-06-10T11:23:03;16.67;;;9.30;;
44272;SDS011;29964;17.182;-96.766;2023-06-10T11:25:39;11.57;;;7.63;;
44272;SDS011;29964;17.182;-96.766;2023-06-10T11:28:18;10.07;;;6.37;;
44272;SDS011;29964;17.182;-96.766;2023-06-10T11:30:45;11.53;;;8.23;;
44272;SDS011;29964;17.182;-96.766;2023-06-10T11:33:16;11.93;;;7.83;;
44272;SDS011;29964;17.182;-96.766;2023-06-10T11:35:43;9.47;;;6.23;;
44272;SDS011;29964;17.182;-96.766;2023-06-10T11:38:10;7.07;;;5.90;;
44272;SDS011;29964;17.182;-96.766;2023-06-10T11:40:37;9.47;;;7.53;;
44272;SDS011;29964;17.182;-96.766;2023-06-10T11:43:04;8.93;;;6.83;;
44272;SDS011;29964;17.182;-96.766;2023-06-10T11:45:30;12.30;;;9.73;;
44272;SDS011;29964;17.182;-96.766;2023-06-10T11:47:58;14.30;;;8.23;;
44272;SDS011;29964;17.182;-96.766;2023-06-10T11:50:42;9.53;;;8.23;;
44272;SDS011;29964;17.182;-96.766;2023-06-10T11:53:09;13.35;;;8.80;;
44272;SDS011;29964;17.182;-96.766;2023-06-10T11:55:42;12.03;;;8.37;;
44272;SDS011;29964;17.182;-96.766;2023-06-10T11:58:15;14.47;;;9.60;;
44272;SDS011;29964;17.182;-96.766;2023-06-10T12:00:52;10.80;;;8.10;;
44272;SDS011;29964;17.182;-96.766;2023-06-10T12:03:21;19.97;;;9.03;;
44272;SDS011;29964;17.182;-96.766;2023-06-10T12:06:01;10.07;;;7.80;;
44272;SDS011;29964;17.182;-96.766;2023-06-10T12:08:28;12.33;;;9.53;;
44272;SDS011;29964;17.182;-96.766;2023-06-10T12:10:55;12.90;;;7.90;;
44272;SDS011;29964;17.182;-96.766;2023-06-10T12:13:23;21.60;;;10.13;;
44272;SDS011;29964;17.182;-96.766;2023-06-10T12:15:50;12.17;;;8.53;;
44272;SDS011;29964;17.182;-96.766;2023-06-10T12:20:44;12.90;;;9.83;;
44272;SDS011;29964;17.182;-96.766;2023-06-10T12:23:11;11.40;;;8.87;;
44272;SDS011;29964;17.182;-96.766;2023-06-10T12:25:38;15.20;;;9.13;;
44272;SDS011;29964;17.182;-96.766;2023-06-10T12:28:09;11.33;;;8.57;;
44272;SDS011;29964;17.182;-96.766;2023-06-10T12:30:36;14.80;;;7.90;;
44272;SDS011;29964;17.182;-96.766;2023-06-10T12:33:03;9.10;;;6.80;;
44272;SDS011;29964;17.182;-96.766;2023-06-10T12:35:30;12.60;;;9.53;;
44272;SDS011;29964;17.182;-96.766;2023-06-10T12:37:57;8.30;;;7.23;;
44272;SDS011;29964;17.182;-96.766;2023-06-10T12:40:32;11.13;;;6.57;;
44272;SDS011;29964;17.182;-96.766;2023-06-10T12:42:59;9.03;;;7.63;;
44272;SDS011;29964;17.182;-96.766;2023-06-10T12:45:30;14.67;;;7.43;;
44272;SDS011;29964;17.182;-96.766;2023-06-10T12:48:30;12.43;;;8.40;;
44272;SDS011;29964;17.182;-96.766;2023-06-10T12:50:54;11.50;;;8.60;;
44272;SDS011;29964;17.182;-96.766;2023-06-10T12:53:21;12.97;;;9.73;;
44272;SDS011;29964;17.182;-96.766;2023-06-10T12:55:49;16.17;;;9.83;;
44272;SDS011;29964;17.182;-96.766;2023-06-10T12:58:16;22.07;;;11.13;;
44272;SDS011;29964;17.182;-96.766;2023-06-10T13:00:43;32.13;;;10.37;;
44272;SDS011;29964;17.182;-96.766;2023-06-10T13:03:10;15.70;;;8.83;;
44272;SDS011;29964;17.182;-96.766;2023-06-10T13:05:36;11.03;;;9.37;;
44272;SDS011;29964;17.182;-96.766;2023-06-10T13:08:12;10.87;;;8.47;;
44272;SDS011;29964;17.182;-96.766;2023-06-10T13:10:39;10.83;;;8.60;;
44272;SDS011;29964;17.182;-96.766;2023-06-10T13:13:06;11.97;;;9.17;;
44272;SDS011;29964;17.182;-96.766;2023-06-10T13:15:35;10.80;;;7.07;;
44272;SDS011;29964;17.182;-96.766;2023-06-10T13:18:04;13.83;;;8.47;;
44272;SDS011;29964;17.182;-96.766;2023-06-10T13:20:31;10.27;;;8.67;;
44272;SDS011;29964;17.182;-96.766;2023-06-10T13:22:57;10.93;;;8.87;;
44272;SDS011;29964;17.182;-96.766;2023-06-10T13:25:24;10.60;;;8.10;;
44272;SDS011;29964;17.182;-96.766;2023-06-10T13:27:51;12.17;;;8.57;;
44272;SDS011;29964;17.182;-96.766;2023-06-10T13:30:18;14.77;;;9.47;;
44272;SDS011;29964;17.182;-96.766;2023-06-10T13:32:45;9.53;;;6.83;;
44272;SDS011;29964;17.182;-96.766;2023-06-10T13:35:12;6.30;;;5.33;;
44272;SDS011;29964;17.182;-96.766;2023-06-10T13:37:39;9.63;;;7.83;;
44272;SDS011;29964;17.182;-96.766;2023-06-10T13:40:06;11.37;;;6.03;;
44272;SDS011;29964;17.182;-96.766;2023-06-10T13:42:33;8.70;;;7.20;;
44272;SDS011;29964;17.182;-96.766;2023-06-10T13:45:01;12.43;;;8.63;;
44272;SDS011;29964;17.182;-96.766;2023-06-10T13:47:29;10.10;;;7.83;;
44272;SDS011;29964;17.182;-96.766;2023-06-10T13:49:56;13.33;;;6.97;;
44272;SDS011;29964;17.182;-96.766;2023-06-10T13:52:22;11.20;;;7.33;;
44272;SDS011;29964;17.182;-96.766;2023-06-10T13:54:49;11.47;;;8.17;;
44272;SDS011;29964;17.182;-96.766;2023-06-10T13:57:16;9.23;;;8.03;;
44272;SDS011;29964;17.182;-96.766;2023-06-10T13:59:43;12.77;;;9.07;;
44272;SDS011;29964;17.182;-96.766;2023-06-10T14:02:10;16.43;;;9.20;;
44272;SDS011;29964;17.182;-96.766;2023-06-10T14:04:36;12.67;;;8.10;;
44272;SDS011;29964;17.182;-96.766;2023-06-10T14:07:03;11.83;;;8.63;;
44272;SDS011;29964;17.182;-96.766;2023-06-10T14:09:30;9.97;;;7.43;;
44272;SDS011;29964;17.182;-96.766;2023-06-10T14:11:57;10.93;;;8.47;;
44272;SDS011;29964;17.182;-96.766;2023-06-10T14:14:24;16.33;;;7.53;;
44272;SDS011;29964;17.182;-96.766;2023-06-10T14:16:51;17.43;;;8.57;;
44272;SDS011;29964;17.182;-96.766;2023-06-10T14:19:17;16.37;;;9.80;;
44272;SDS011;29964;17.182;-96.766;2023-06-10T14:21:44;12.37;;;9.37;;
44272;SDS011;29964;17.182;-96.766;2023-06-10T14:24:12;15.00;;;10.20;;
44272;SDS011;29964;17.182;-96.766;2023-06-10T14:26:39;15.00;;;8.47;;
44272;SDS011;29964;17.182;-96.766;2023-06-10T14:29:06;11.73;;;9.33;;
44272;SDS011;29964;17.182;-96.766;2023-06-10T14:31:34;13.13;;;8.03;;
44272;SDS011;29964;17.182;-96.766;2023-06-10T14:34:00;11.00;;;8.17;;